Time;durP1;ratioP1;P1;durP2;ratioP2;P2;SDS_P1;SDS_P2;PMS_P1;PMS_P2;Temp;Humidity;BMP_temperature;BMP_pressure;BME280_temperature;BME280_humidity;BME280_pressure;Samples;Min_cycle;Max_cycle;Signal;HPM_P1;HPM_P2
2023/10/03 00:01:15;;;;;;;4.47;2.83;;;;;;;21.14;67.03;101080.75;10370580;28;97547;-78
2023/10/03 00:06:18;;;;;;;7.35;3.15;;;;;;;21.11;66.99;101078.28;10381975;28;96653;-78
2023/10/03 00:11:23;;;;;;;4.95;2.88;;;;;;;21.20;66.58;101084.84;10382243;28;96624;-78
2023/10/03 00:16:28;;;;;;;;;;;;;;;21.12;67.58;101077.31;10381147;28;96845;-78
2023/10/03 00:21:33;;;;;;;3.97;2.28;;;;;;;21.00;66.72;101080.03;10381228;28;96593;-78
2023/10/03 00:26:36;;;;;;;4.45;2.40;;;;;;;20.55;68.02;101081.31;10379988;28;96878;-78
2023/10/03 00:31:41;;;;;;;4.38;2.53;;;;;;;20.73;68.13;101079.22;10380905;28;97025;-78
2023/10/03 00:36:44;;;;;;;4.43;2.33;;;;;;;20.84;67.80;101082.03;10380742;28;96617;-78
2023/10/03 00:41:48;;;;;;;3.85;2.42;;;;;;;20.86;67.44;101090.81;10366352;28;97355;-78
2023/10/03 00:46:53;;;;;;;5.15;2.47;;;;;;;20.93;67.75;101098.28;10339468;28;96684;-78
2023/10/03 00:51:57;;;;;;;5.28;2.72;;;;;;;20.91;67.24;101100.22;10367504;28;96776;-78
2023/10/03 00:57:01;;;;;;;3.20;2.33;;;;;;;21.03;67.04;101103.88;10357304;28;96899;-78
2023/10/03 01:02:08;;;;;;;3.15;1.88;;;;;;;21.15;66.55;101100.34;10338622;28;96642;-78
2023/10/03 01:07:14;;;;;;;3.15;2.03;;;;;;;21.20;66.75;101099.09;10352303;28;96679;-78
2023/10/03 01:12:18;;;;;;;5.05;2.25;;;;;;;21.01;67.26;101095.97;10379733;28;97339;-78
2023/10/03 01:17:30;;;;;;;5.25;2.20;;;;;;;20.78;67.80;101102.03;10378502;28;96679;-78
2023/10/03 01:22:37;;;;;;;3.60;2.13;;;;;;;20.71;67.78;101097.19;10379151;28;96989;-78
2023/10/03 01:27:46;;;;;;;7.60;2.65;;;;;;;20.76;67.77;101100.41;10296494;28;96722;-78
2023/10/03 01:32:53;;;;;;;6.90;2.63;;;;;;;20.71;67.80;101099.88;10296573;28;96973;-78
2023/10/03 01:37:58;;;;;;;3.92;2.22;;;;;;;20.80;67.82;101101.91;10296233;28;96832;-78
2023/10/03 01:43:03;;;;;;;4.47;2.53;;;;;;;20.35;69.74;101101.41;10328993;28;97034;-78
2023/10/03 01:48:12;;;;;;;4.32;2.70;;;;;;;20.62;69.21;101105.88;10337203;28;97068;-78
2023/10/03 01:53:17;;;;;;;3.45;2.47;;;;;;;20.79;68.71;101105.56;10337820;28;96940;-78
2023/10/03 01:58:24;;;;;;;3.67;2.42;;;;;;;20.86;68.43;101098.84;10351171;28;96795;-78
2023/10/03 02:03:29;;;;;;;3.72;2.50;;;;;;;20.86;68.15;101106.88;10378013;28;97379;-78
2023/10/03 02:08:33;;;;;;;;;;;;;;;20.58;70.19;101101.66;10377098;28;96690;-78
2023/10/03 02:13:39;;;;;;;5.97;2.33;;;;;;;20.95;68.20;101093.69;10377837;28;97192;-78
2023/10/03 02:18:42;;;;;;;5.78;2.40;;;;;;;20.99;67.63;101097.03;10376593;28;96629;-78
2023/10/03 02:23:47;;;;;;;3.83;2.50;;;;;;;20.91;68.52;101089.50;10377777;28;96913;-78
2023/10/03 02:28:59;;;;;;;5.13;2.70;;;;;;;20.85;69.26;101091.75;10376253;28;96678;-78
2023/10/03 02:34:06;;;;;;;4.85;2.15;;;;;;;21.08;68.63;101085.69;10376879;28;97274;-78
2023/10/03 02:39:13;;;;;;;3.88;2.75;;;;;;;21.14;68.39;101091.47;10364509;28;96803;-78
2023/10/03 02:44:20;;;;;;;3.20;2.03;;;;;;;21.05;68.71;101086.75;10336036;28;96631;-78
2023/10/03 02:49:24;;;;;;;4.57;2.42;;;;;;;21.00;69.06;101083.53;10350023;28;96796;-78
2023/10/03 02:54:27;;;;;;;4.22;2.47;;;;;;;21.05;68.92;101080.56;10318130;28;98268;-78
2023/10/03 02:59:32;;;;;;;5.53;2.28;;;;;;;21.10;69.06;101079.25;10333077;28;96863;-78
2023/10/03 03:04:40;;;;;;;6.22;2.50;;;;;;;21.21;68.73;101084.75;10335182;28;96734;-78
2023/10/03 03:09:44;;;;;;;4.07;2.25;;;;;;;21.19;68.85;101085.84;10293586;28;96798;-78
2023/10/03 03:14:52;;;;;;;3.22;2.45;;;;;;;21.09;69.33;101093.59;10293134;28;96731;-78
2023/10/03 03:19:59;;;;;;;4.78;2.47;;;;;;;21.03;69.49;101094.03;10293085;28;96933;-78
2023/10/03 03:25:03;;;;;;;4.28;2.42;;;;;;;21.16;69.19;101088.69;10351043;28;96648;-78
2023/10/03 03:30:33;;;;;;;3.70;2.28;;;;;;;21.17;69.40;101098.47;10376787;28;97361;-78
2023/10/03 03:35:42;;;;;;;4.60;2.60;;;;;;;21.14;69.46;101079.88;10383168;28;96790;-78
2023/10/03 03:40:47;;;;;;;4.03;2.42;;;;;;;21.02;70.07;101091.44;10375747;28;97434;-78
2023/10/03 03:45:52;;;;;;;;;;;;;;;21.09;71.16;101088.25;10341237;28;96668;-77
2023/10/03 03:50:58;;;;;;;5.47;2.75;;;;;;;21.05;69.82;101089.41;10339805;28;96617;-78
2023/10/03 03:56:04;;;;;;;4.53;2.45;;;;;;;21.09;69.77;101087.38;10344423;28;97043;-78
2023/10/03 04:01:14;;;;;;;5.05;2.65;;;;;;;21.16;69.70;101088.69;10380691;28;96843;-78
2023/10/03 04:06:19;;;;;;;5.63;2.38;;;;;;;21.21;69.19;101090.09;10381350;28;96686;-78
2023/10/03 04:11:24;;;;;;;4.93;2.35;;;;;;;21.27;69.41;101092.34;10381416;28;97525;-78
2023/10/03 04:16:32;;;;;;;5.80;2.47;;;;;;;21.19;69.68;101091.19;10381047;28;96736;-78
2023/10/03 04:21:55;;;;;;;5.25;2.42;;;;;;;20.71;71.32;101083.81;10377616;28;96635;-78
2023/10/03 04:27:07;;;;;;;6.05;2.97;;;;;;;21.00;70.55;101083.53;10381248;28;96741;-78
2023/10/03 04:32:11;;;;;;;8.65;3.30;;;;;;;21.12;69.76;101073.81;10379766;28;96880;-78
2023/10/03 04:37:33;;;;;;;5.68;2.83;;;;;;;21.14;69.73;101077.22;10373915;28;97377;-78
2023/10/03 04:42:40;;;;;;;5.18;2.55;;;;;;;21.11;69.36;101072.06;10344024;28;96773;-78
2023/10/03 04:47:48;;;;;;;5.50;3.25;;;;;;;21.08;69.53;101083.88;10348407;28;96851;-78
2023/10/03 04:53:14;;;;;;;6.00;2.42;;;;;;;20.98;69.67;101084.63;10373926;28;97592;-78
2023/10/03 04:58:19;;;;;;;5.60;2.55;;;;;;;20.80;69.94;101086.72;10378840;28;97682;-78
2023/10/03 05:03:42;;;;;;;4.30;2.10;;;;;;;20.71;69.93;101083.81;10379165;28;97561;-78
2023/10/03 05:09:06;;;;;;;6.50;2.40;;;;;;;20.57;69.86;101089.28;10375201;28;96678;-78
2023/10/03 05:14:12;;;;;;;4.63;2.67;;;;;;;20.52;69.80;101091.38;10379055;28;97509;-78
2023/10/03 05:19:20;;;;;;;6.10;2.20;;;;;;;20.37;70.05;101098.63;10379829;28;97274;-78
2023/10/03 05:24:42;;;;;;;3.00;1.83;;;;;;;20.26;70.27;101109.97;10376230;28;97547;-78
2023/10/03 05:30:08;;;;;;;6.60;2.30;;;;;;;20.26;69.97;101120.69;10375748;28;96622;-78
2023/10/03 05:35:31;;;;;;;5.38;2.45;;;;;;;20.18;70.55;101120.34;10375119;28;96746;-78
2023/10/03 05:40:53;;;;;;;4.90;2.38;;;;;;;20.19;70.45;101122.03;10355935;28;97176;-78
2023/10/03 05:46:15;;;;;;;3.80;2.25;;;;;;;20.15;70.40;101123.19;10330076;28;96648;-78
2023/10/03 05:51:39;;;;;;;6.72;2.50;;;;;;;20.12;70.48;101125.19;10330057;28;97182;-78
2023/10/03 05:56:44;;;;;;;6.82;2.28;;;;;;;20.13;70.18;101125.09;10353256;28;97399;-78
2023/10/03 06:01:48;;;;;;;4.30;2.55;;;;;;;20.26;69.86;101131.38;10377005;28;96726;-77
2023/10/03 06:07:15;;;;;;;9.25;3.97;;;;;;;20.16;70.37;101140.94;10375921;28;96840;-78
2023/10/03 06:12:38;;;;;;;10.70;3.70;;;;;;;20.03;70.65;101142.69;10371317;28;96618;-78
2023/10/03 06:17:42;;;;;;;4.72;2.83;;;;;;;19.97;71.23;101150.25;10377241;28;97084;-78
2023/10/03 06:23:07;;;;;;;5.55;2.67;;;;;;;19.97;71.02;101150.25;10370183;28;96640;-78
2023/10/03 06:28:31;;;;;;;4.88;2.50;;;;;;;19.89;71.59;101149.88;10374611;28;97460;-78
2023/10/03 06:33:52;;;;;;;4.20;2.73;;;;;;;19.89;71.27;101152.56;10289654;28;96702;-78
2023/10/03 06:38:59;;;;;;;5.70;2.75;;;;;;;19.85;71.27;101151.91;10293658;28;96965;-78
2023/10/03 06:44:20;;;;;;;7.30;3.03;;;;;;;19.89;71.44;101166.75;10296093;28;97273;-78
2023/10/03 06:49:49;;;;;;;4.20;2.40;;;;;;;19.95;71.58;101155.69;10366096;28;96772;-78
2023/10/03 06:55:15;;;;;;;4.22;2.53;;;;;;;19.90;71.81;101176.50;10374726;28;96999;-78
2023/10/03 07:00:37;;;;;;;4.32;2.78;;;;;;;19.97;71.87;101176.97;10373545;28;97018;-78
2023/10/03 07:05:59;;;;;;;5.05;3.15;;;;;;;20.01;71.73;101175.81;10372795;28;97420;-78
2023/10/03 07:11:23;;;;;;;8.63;2.72;;;;;;;20.05;71.97;101177.31;10377934;28;96683;-78
2023/10/03 07:16:46;;;;;;;5.57;2.80;;;;;;;20.12;71.48;101182.19;10382124;28;97099;-78
2023/10/03 07:22:08;;;;;;;5.05;2.63;;;;;;;20.35;71.15;101186.94;10377363;28;97500;-78
2023/10/03 07:27:32;;;;;;;4.75;2.70;;;;;;;20.54;70.54;101188.41;10376314;28;96668;-78
2023/10/03 07:32:53;;;;;;;5.82;2.85;;;;;;;20.64;70.68;101189.50;10381280;28;96714;-78
2023/10/03 07:38:18;;;;;;;5.53;3.25;;;;;;;20.53;70.92;101200.94;10372663;28;96741;-79
2023/10/03 07:43:43;;;;;;;6.80;2.97;;;;;;;20.60;70.25;101204.88;10339704;28;96725;-79
2023/10/03 07:49:07;;;;;;;4.35;2.83;;;;;;;20.51;70.84;101201.97;10338730;28;96667;-78
2023/10/03 07:54:37;;;;;;;6.40;2.97;;;;;;;20.62;70.36;101216.34;10348859;28;97119;-79
2023/10/03 08:00:07;;;;;;;4.20;2.20;;;;;;;21.56;67.71;101223.34;10378730;28;96723;-78
2023/10/03 08:05:34;;;;;;;4.97;2.70;;;;;;;22.61;65.32;101216.53;10379249;28;97129;-78
2023/10/03 08:11:06;;;;;;;4.40;2.28;;;;;;;23.92;61.59;101215.38;10381113;28;97251;-79
2023/10/03 08:16:36;;;;;;;3.88;2.58;;;;;;;24.41;57.70;101214.00;10372592;28;97263;-79
2023/10/03 09:22:08;;;;;;;4.72;2.08;;;;;;;29.40;44.81;101240.41;10371104;28;97282;-80
2023/10/03 09:27:17;;;;;;;5.70;2.53;;;;;;;29.34;44.48;101249.19;10378075;28;97058;-79
2023/10/03 09:32:24;;;;;;;3.33;2.38;;;;;;;29.60;43.70;101246.53;10378117;28;97110;-79
2023/10/03 09:37:29;;;;;;;5.32;2.78;;;;;;;30.52;42.01;101239.44;10369774;28;96648;-80
2023/10/03 09:42:39;;;;;;;2.80;1.90;;;;;;;30.49;41.86;101229.72;10336766;28;97328;-80
2023/10/03 09:47:46;;;;;;;3.65;1.95;;;;;;;31.77;39.45;101231.75;10336704;28;97137;-80
2023/10/03 09:52:53;;;;;;;4.65;1.92;;;;;;;31.58;40.06;101239.47;10338895;28;96729;-80
2023/10/03 09:57:59;;;;;;;2.38;2.10;;;;;;;32.22;39.08;101231.97;10377489;28;97614;-80
2023/10/03 10:03:07;;;;;;;3.83;2.58;;;;;;;32.41;38.82;101237.03;10377948;28;97078;-80
2023/10/03 10:08:20;;;;;;;2.90;2.05;;;;;;;33.37;36.69;101235.59;10377441;28;98439;-80
2023/10/03 10:13:24;;;;;;;3.55;1.90;;;;;;;33.45;36.83;101230.06;10376162;28;96677;-80
2023/10/03 10:18:57;;;;;;;3.75;2.40;;;;;;;33.53;35.96;101223.69;10377093;28;96731;-80
2023/10/03 10:24:28;;;;;;;4.82;2.30;;;;;;;34.11;34.65;101214.75;10377423;28;97049;-80
2023/10/03 10:29:35;;;;;;;4.50;2.08;;;;;;;34.25;35.16;101212.00;10381992;22;98517;-80
2023/10/03 10:34:45;;;;;;;4.28;2.10;;;;;;;33.94;34.96;101210.50;10353060;28;96956;-80
2023/10/03 10:40:17;;;;;;;2.65;1.90;;;;;;;33.46;34.88;101204.50;10338088;28;96985;-80
2023/10/03 10:45:21;;;;;;;3.03;1.85;;;;;;;33.96;34.82;101197.50;10349492;28;96728;-80
2023/10/03 10:50:27;;;;;;;3.70;1.88;;;;;;;34.91;33.68;101193.63;10377008;28;96701;-80
2023/10/03 10:55:33;;;;;;;4.50;1.85;;;;;;;34.85;33.35;101192.53;10376178;28;96647;-80
2023/10/03 11:00:38;;;;;;;2.30;1.60;;;;;;;36.30;32.06;101189.91;10375082;28;97135;-80
2023/10/03 11:05:44;;;;;;;3.25;1.80;;;;;;;35.04;33.09;101182.88;10374607;28;96621;-80
2023/10/03 11:10:55;;;;;;;3.05;1.83;;;;;;;35.65;31.60;101166.53;10376251;28;97445;-80
2023/10/03 11:16:00;;;;;;;3.30;1.63;;;;;;;35.83;31.43;101166.00;10375782;28;97042;-80
2023/10/03 11:21:08;;;;;;;2.60;1.70;;;;;;;36.47;30.85;101158.34;10374646;28;97700;-80
2023/10/03 11:26:13;;;;;;;2.67;1.35;;;;;;;36.58;30.44;101146.78;10355928;28;97186;-81
2023/10/03 11:31:18;;;;;;;2.50;1.48;;;;;;;36.13;30.93;101150.19;10333342;28;97038;-80
2023/10/03 11:36:21;;;;;;;2.58;1.20;;;;;;;36.30;30.74;101143.28;10334430;28;97198;-80
2023/10/03 11:41:36;;;;;;;3.03;1.40;;;;;;;36.02;29.97;101137.91;10334049;28;96713;-80
2023/10/03 11:46:41;;;;;;;2.33;1.20;;;;;;;36.70;29.67;101136.88;10333586;28;96703;-81
2023/10/03 11:51:45;;;;;;;3.70;1.20;;;;;;;36.61;29.80;101135.38;10337482;28;96854;-80
2023/10/03 11:56:51;;;;;;;2.05;1.33;;;;;;;36.46;29.35;101130.09;10380520;28;96706;-80
2023/10/03 12:01:59;;;;;;;2.13;1.23;;;;;;;36.69;29.49;101126.94;10381371;28;96975;-80
2023/10/03 12:07:04;;;;;;;2.58;1.30;;;;;;;37.11;28.68;101112.00;10381267;28;97479;-80
2023/10/03 12:12:13;;;;;;;1.77;1.05;;;;;;;37.58;27.32;101104.38;10380341;28;97566;-80
2023/10/03 12:17:16;;;;;;;1.85;1.27;;;;;;;37.58;27.46;101112.63;10381295;28;96809;-81
2023/10/03 12:22:19;;;;;;;2.35;1.25;;;;;;;37.31;27.79;101093.63;10381026;28;96643;-80
2023/10/03 12:27:26;;;;;;;0.88;0.80;;;;;;;37.39;27.55;101080.56;10352234;28;97145;-81
2023/10/03 12:32:29;;;;;;;2.63;1.30;;;;;;;37.61;27.43;101078.38;10339730;28;96874;-81
2023/10/03 12:37:35;;;;;;;2.70;1.00;;;;;;;37.69;27.44;101069.91;10338825;28;96756;-80
2023/10/03 12:42:41;;;;;;;1.88;0.95;;;;;;;38.89;25.64;101064.41;10339422;28;96786;-80
2023/10/03 12:47:47;;;;;;;1.33;1.00;;;;;;;38.08;25.98;101053.25;10337541;28;96750;-81
2023/10/03 12:52:51;;;;;;;1.48;1.02;;;;;;;38.60;25.66;101049.34;10338623;28;96582;-81
2023/10/03 12:58:00;;;;;;;2.90;0.93;;;;;;;38.74;25.86;101045.44;10338584;28;97278;-81
2023/10/03 13:03:04;;;;;;;1.33;0.80;;;;;;;38.93;25.48;101040.81;10338550;28;97140;-80
2023/10/03 13:08:08;;;;;;;1.75;0.85;;;;;;;39.58;24.36;101035.50;10338074;28;97890;-80
2023/10/03 13:13:13;;;;;;;1.80;0.88;;;;;;;40.36;23.61;101022.59;10338236;28;97167;-81
2023/10/03 13:18:16;;;;;;;1.55;0.98;;;;;;;39.52;24.85;101030.06;10338533;28;97108;-81
2023/10/03 13:23:22;;;;;;;1.65;0.93;;;;;;;40.07;23.87;101026.22;10338528;28;96690;-81
2023/10/03 13:28:30;;;;;;;1.77;0.70;;;;;;;38.88;23.76;101019.50;10374093;28;96742;-80
2023/10/03 13:33:36;;;;;;;0.95;0.68;;;;;;;40.25;23.38;101012.38;10378473;28;96828;-81
2023/10/03 13:38:41;;;;;;;1.17;0.77;;;;;;;39.50;23.97;101008.25;10294800;28;96927;-80
2023/10/03 13:43:50;;;;;;;1.70;0.73;;;;;;;38.27;24.66;100993.72;10295857;28;96671;-80
2023/10/03 13:49:00;;;;;;;2.25;0.80;;;;;;;38.22;24.89;100985.25;10295372;28;96740;-81
2023/10/03 13:54:08;;;;;;;1.80;0.98;;;;;;;38.80;23.85;100981.25;10325932;28;96670;-80
2023/10/03 13:59:17;;;;;;;3.28;0.80;;;;;;;39.25;23.73;100985.47;10336144;28;97543;-80
2023/10/03 14:04:21;;;;;;;3.10;1.00;;;;;;;39.49;23.84;100984.53;10336476;28;97261;-80
2023/10/03 14:09:27;;;;;;;1.30;0.80;;;;;;;39.78;23.70;100983.75;10336351;28;96766;-80
2023/10/03 14:14:34;;;;;;;1.20;1.10;;;;;;;38.72;24.62;100984.28;10336034;28;97839;-80
2023/10/03 14:19:39;;;;;;;1.85;0.90;;;;;;;38.67;24.56;100979.44;10335929;28;97449;-80
2023/10/03 14:24:45;;;;;;;1.33;0.80;;;;;;;38.62;24.65;100975.66;10336102;28;96621;-80
2023/10/03 14:29:49;;;;;;;2.85;1.13;;;;;;;38.34;25.29;100978.88;10333909;28;97635;-80
2023/10/03 14:34:53;;;;;;;2.17;1.20;;;;;;;38.42;25.76;100975.00;10335465;28;97115;-80
2023/10/03 14:39:57;;;;;;;1.27;1.00;;;;;;;37.74;26.33;100972.03;10334726;28;96909;-80
2023/10/03 14:45:02;;;;;;;2.25;1.20;;;;;;;37.75;26.85;100970.94;10323297;28;96795;-80
2023/10/03 14:50:07;;;;;;;3.63;1.15;;;;;;;37.64;27.17;100965.31;10335019;28;97172;-81
2023/10/03 14:55:12;;;;;;;3.03;1.23;;;;;;;37.56;26.68;100966.41;10334850;28;97129;-80
2023/10/03 15:00:18;;;;;;;2.78;1.08;;;;;;;36.70;28.28;100961.31;10348247;28;97047;-80
2023/10/03 15:05:21;;;;;;;2.88;1.70;;;;;;;36.38;28.75;100957.47;10376746;28;97105;-80
2023/10/03 15:10:25;;;;;;;2.95;1.60;;;;;;;35.95;29.16;100945.22;10375638;28;96776;-80
2023/10/03 15:15:33;;;;;;;2.85;1.50;;;;;;;35.89;29.17;100954.25;10375851;28;96671;-80
2023/10/03 15:20:36;;;;;;;2.67;1.40;;;;;;;35.55;30.04;100948.84;10292500;28;96787;-80
2023/10/03 15:25:41;;;;;;;4.00;2.15;;;;;;;35.04;30.38;100950.28;10307990;28;96841;-80
2023/10/03 15:30:50;;;;;;;3.17;1.65;;;;;;;34.42;32.00;100945.56;10340685;28;96621;-80
2023/10/03 15:35:55;;;;;;;2.80;1.52;;;;;;;33.75;32.79;100936.06;10341604;28;96592;-80
2023/10/03 15:40:58;;;;;;;6.63;1.83;;;;;;;33.69;32.69;100939.56;10340791;28;97481;-79
2023/10/03 15:46:04;;;;;;;4.70;1.55;;;;;;;32.97;34.42;100935.88;10340906;28;97299;-79
2023/10/03 15:51:13;;;;;;;2.92;1.85;;;;;;;32.82;34.19;100935.00;10340925;28;97083;-79
2023/10/03 15:56:19;;;;;;;3.90;2.13;;;;;;;32.23;35.46;100942.22;10340984;28;96737;-79
2023/10/03 16:01:23;;;;;;;3.95;2.30;;;;;;;31.97;36.20;100936.28;10339620;28;96807;-79
2023/10/03 16:06:27;;;;;;;3.72;1.50;;;;;;;31.73;36.48;100933.72;10340481;28;97295;-80
2023/10/03 16:11:30;;;;;;;;;;;;;;;31.52;36.83;100941.66;10380759;28;96820;-80
2023/10/03 16:16:39;;;;;;;3.70;1.90;;;;;;;31.22;37.58;100937.84;10381623;28;97220;-79
2023/10/03 16:21:42;;;;;;;8.70;4.65;;;;;;;31.04;37.70;100941.84;10381207;28;97120;-79
2023/10/03 16:26:46;;;;;;;3.53;2.20;;;;;;;30.89;38.58;100935.41;10357371;28;96661;-79
2023/10/03 16:31:50;;;;;;;;;;;;;;;30.64;39.73;100934.63;10339524;28;96798;-79
2023/10/03 16:36:53;;;;;;;5.25;2.25;;;;;;;30.40;39.79;100937.38;10338638;28;97166;-79
2023/10/03 16:41:59;;;;;;;5.72;2.90;;;;;;;30.10;41.05;100936.19;10339320;28;96753;-79
2023/10/03 16:47:06;;;;;;;5.38;2.75;;;;;;;29.73;42.55;100940.34;10339355;28;96803;-79
2023/10/03 16:52:09;;;;;;;5.80;2.35;;;;;;;29.62;43.60;100943.38;10338665;28;96790;-79
2023/10/03 16:57:14;;;;;;;4.13;2.35;;;;;;;29.34;45.34;100944.63;10338142;28;96669;-79
2023/10/03 17:02:18;;;;;;;5.85;2.60;;;;;;;29.49;45.43;100945.66;10337766;28;96737;-79
2023/10/03 17:07:23;;;;;;;4.25;2.53;;;;;;;29.38;45.72;100946.81;10338112;28;96973;-79
2023/10/03 17:12:28;;;;;;;5.22;2.90;;;;;;;29.35;46.08;100951.75;10338068;28;96602;-79
2023/10/03 17:17:35;;;;;;;5.13;3.15;;;;;;;29.28;46.66;100948.81;10338276;28;96785;-79
2023/10/03 17:22:39;;;;;;;5.35;3.28;;;;;;;29.04;47.29;100952.28;10337537;28;97513;-79
2023/10/03 17:27:43;;;;;;;7.45;2.90;;;;;;;28.92;47.60;100961.72;10336799;28;96764;-80
2023/10/03 17:32:49;;;;;;;6.35;2.85;;;;;;;28.63;48.86;100954.88;10337871;28;96715;-79
2023/10/03 17:37:55;;;;;;;5.05;3.05;;;;;;;28.40;49.30;100956.41;10337674;28;96718;-80
2023/10/03 17:42:59;;;;;;;4.82;2.50;;;;;;;28.21;50.06;100957.41;10336801;28;97453;-79
2023/10/03 17:48:04;;;;;;;5.53;2.72;;;;;;;28.16;49.92;100972.41;10336929;28;97388;-79
2023/10/03 17:53:07;;;;;;;4.82;2.75;;;;;;;28.04;50.19;100969.97;10336688;28;96674;-79
2023/10/03 17:58:16;;;;;;;4.43;2.85;;;;;;;27.97;50.50;100978.84;10336136;28;96774;-78
2023/10/03 18:03:21;;;;;;;4.72;2.70;;;;;;;27.79;50.65;100986.06;10337106;28;97390;-78
2023/10/03 18:08:25;;;;;;;4.45;2.65;;;;;;;27.73;50.91;100987.56;10336629;28;97282;-78
2023/10/03 18:13:29;;;;;;;6.88;2.78;;;;;;;27.52;51.30;100999.59;10336414;28;96674;-79
2023/10/03 18:18:33;;;;;;;3.75;2.58;;;;;;;27.26;52.18;101001.31;10335796;28;96767;-79
2023/10/03 18:23:37;;;;;;;3.75;2.60;;;;;;;27.15;52.16;101010.44;10336134;28;96666;-78
2023/10/03 18:28:40;;;;;;;4.13;2.95;;;;;;;27.10;53.03;101022.69;10336060;28;96892;-78
2023/10/03 18:33:46;;;;;;;3.90;2.58;;;;;;;26.96;53.61;101029.38;10335457;28;97522;-78
2023/10/03 18:38:49;;;;;;;4.10;3.00;;;;;;;26.65;54.35;101026.06;10335514;28;96824;-78
2023/10/03 18:43:54;;;;;;;5.38;2.92;;;;;;;26.60;55.00;101036.44;10334969;28;97250;-78
2023/10/03 18:48:58;;;;;;;4.32;2.97;;;;;;;26.50;54.91;101042.84;10335099;28;96640;-78
2023/10/03 18:54:02;;;;;;;7.57;2.92;;;;;;;26.35;55.71;101053.16;10334850;28;96832;-78
2023/10/03 18:59:05;;;;;;;4.83;3.30;;;;;;;26.33;55.51;101060.56;10334967;28;97248;-78
2023/10/03 19:04:10;;;;;;;5.50;3.08;;;;;;;26.21;55.70;101056.31;10334286;28;96871;-78
2023/10/03 19:09:14;;;;;;;5.55;3.13;;;;;;;26.12;56.17;101059.84;10334839;28;97330;-78
2023/10/03 19:14:17;;;;;;;4.35;3.03;;;;;;;25.99;56.26;101055.72;10335149;28;96580;-78
2023/10/03 19:19:22;;;;;;;5.53;3.20;;;;;;;25.88;56.55;101059.38;10335000;28;96720;-78
2023/10/03 19:24:25;;;;;;;7.53;3.22;;;;;;;25.84;56.53;101071.44;10334489;28;96776;-78
2023/10/03 19:29:28;;;;;;;5.23;2.80;;;;;;;25.77;56.89;101076.53;10333768;28;97342;-78
2023/10/03 19:34:38;;;;;;;7.63;3.10;;;;;;;25.79;56.43;101079.06;10333677;28;97170;-78
2023/10/03 19:39:42;;;;;;;4.60;3.13;;;;;;;25.76;56.66;101079.38;10333995;28;97046;-78
2023/10/03 19:44:46;;;;;;;6.57;3.27;;;;;;;25.59;56.88;101082.66;10333829;28;96658;-78
2023/10/03 19:49:51;;;;;;;5.47;3.00;;;;;;;25.52;56.88;101087.72;10334006;28;96819;-78
2023/10/03 19:54:54;;;;;;;9.18;3.28;;;;;;;25.35;57.53;101093.75;10333453;28;96783;-78
2023/10/03 19:59:57;;;;;;;5.13;2.77;;;;;;;25.38;57.36;101088.09;10332843;28;96901;-78
2023/10/03 20:05:03;;;;;;;6.33;3.30;;;;;;;25.26;57.79;101099.94;10333985;28;96916;-78
2023/10/03 20:10:08;;;;;;;4.85;3.35;;;;;;;25.05;58.36;101107.22;10333976;28;96634;-78
2023/10/03 20:15:12;;;;;;;5.80;2.88;;;;;;;24.87;58.71;101106.06;10337563;28;96703;-78
2023/10/03 20:20:17;;;;;;;4.75;2.67;;;;;;;24.81;59.07;101114.63;10339664;28;96573;-78
2023/10/03 20:25:23;;;;;;;4.47;3.17;;;;;;;24.67;59.28;101112.28;10339326;28;96930;-78
2023/10/03 20:30:27;;;;;;;6.10;3.28;;;;;;;24.76;59.10;101114.19;10338713;28;96766;-78
2023/10/03 20:35:33;;;;;;;3.80;2.95;;;;;;;24.58;59.69;101111.19;10339338;28;96689;-78
2023/10/03 20:40:37;;;;;;;4.85;3.25;;;;;;;24.68;59.54;101114.00;10339161;28;96670;-78
2023/10/03 20:45:41;;;;;;;6.70;3.38;;;;;;;24.54;59.84;101111.59;10297661;28;96694;-78
2023/10/03 20:50:46;;;;;;;;;;;;;;;24.26;60.70;101122.91;10298337;28;97386;-78
2023/10/03 20:55:50;;;;;;;6.15;3.08;;;;;;;24.53;59.61;101120.66;10300872;28;97366;-78
2023/10/03 21:00:54;;;;;;;5.55;3.40;;;;;;;24.57;59.83;101124.78;10339482;28;97004;-78
2023/10/03 21:06:01;;;;;;;4.68;3.38;;;;;;;24.56;59.70;101123.09;10338231;28;96626;-78
2023/10/03 21:11:04;;;;;;;5.95;3.10;;;;;;;24.58;59.72;101119.28;10338365;28;96640;-78
2023/10/03 21:16:07;;;;;;;4.20;2.90;;;;;;;24.18;60.82;101128.06;10337781;28;97236;-78
2023/10/03 21:21:13;;;;;;;4.83;2.90;;;;;;;23.99;61.46;101133.25;10337765;28;96846;-78
2023/10/03 21:26:16;;;;;;;6.20;3.65;;;;;;;24.23;60.97;101125.84;10376481;28;96854;-78
2023/10/03 21:31:20;;;;;;;4.23;2.97;;;;;;;24.07;61.45;101131.63;10363501;28;96768;-78
2023/10/03 21:36:24;;;;;;;5.77;3.13;;;;;;;23.97;61.57;101138.75;10337543;28;97108;-78
2023/10/03 21:41:28;;;;;;;5.68;3.55;;;;;;;24.18;61.13;101131.63;10337259;28;97471;-78
2023/10/03 21:46:31;;;;;;;4.83;3.30;;;;;;;24.17;61.00;101132.59;10337249;28;96667;-78
2023/10/03 21:51:36;;;;;;;4.57;3.10;;;;;;;23.92;61.93;101132.03;10337139;28;96832;-78
2023/10/03 21:56:39;;;;;;;4.50;2.92;;;;;;;23.65;62.59;101124.34;10336474;28;96984;-78
2023/10/03 22:01:49;;;;;;;7.13;3.33;;;;;;;23.39;63.38;101138.97;10336035;28;96755;-78
2023/10/03 22:06:54;;;;;;;5.78;3.50;;;;;;;23.29;63.78;101125.41;10362482;28;96673;-78
2023/10/03 22:11:58;;;;;;;4.30;3.22;;;;;;;23.58;63.02;101128.50;10377591;28;96913;-78
2023/10/03 22:17:01;;;;;;;4.67;3.07;;;;;;;23.73;62.48;101120.06;10377515;28;97014;-78
2023/10/03 22:22:05;;;;;;;5.37;3.27;;;;;;;23.70;62.59;101112.25;10364247;28;97327;-78
2023/10/03 22:27:09;;;;;;;4.93;3.35;;;;;;;23.48;63.19;101108.69;10335444;28;96978;-78
2023/10/03 22:32:12;;;;;;;7.15;3.30;;;;;;;23.32;64.06;101102.84;10335249;28;96878;-78
2023/10/03 22:37:17;;;;;;;5.85;3.42;;;;;;;22.99;65.43;101102.78;10334542;28;96836;-78
2023/10/03 22:42:21;;;;;;;5.63;3.95;;;;;;;22.82;66.42;101103.22;10336356;28;96778;-78
2023/10/03 22:47:24;;;;;;;;;;;;;;;22.69;68.97;101105.94;10335774;28;97248;-78
2023/10/03 22:52:29;;;;;;;6.65;3.42;;;;;;;22.59;67.05;101103.09;10335109;28;97224;-78
2023/10/03 23:02:59;;;;;;;4.65;3.50;;;;;;;22.44;66.97;101109.63;10332216;28;97323;-79
2023/10/03 23:08:08;;;;;;;5.18;3.70;;;;;;;22.37;67.29;101105.69;10334787;28;97322;-78
2023/10/03 23:13:11;;;;;;;5.68;3.50;;;;;;;22.48;66.73;101110.25;10334837;28;99037;-78
2023/10/03 23:18:14;;;;;;;6.13;3.97;;;;;;;22.39;67.52;101110.94;10301775;28;97122;-78
2023/10/03 23:23:19;;;;;;;5.80;3.15;;;;;;;22.31;67.62;101105.31;10293094;28;96761;-78
2023/10/03 23:28:23;;;;;;;5.15;3.00;;;;;;;22.33;67.31;101098.00;10308482;28;97167;-78
2023/10/03 23:33:27;;;;;;;7.33;3.63;;;;;;;22.26;67.58;101102.09;10335045;28;97238;-78
2023/10/03 23:38:35;;;;;;;5.72;3.70;;;;;;;22.16;68.28;101099.25;10333702;28;97705;-79
2023/10/03 23:43:40;;;;;;;4.57;3.15;;;;;;;22.12;68.09;101091.53;10333006;28;98332;-78
2023/10/03 23:48:48;;;;;;;6.10;3.65;;;;;;;21.97;68.91;101090.81;10362713;28;97487;-78
2023/10/03 23:53:53;;;;;;;4.43;3.17;;;;;;;21.90;69.23;101089.53;10381922;28;97489;-78
2023/10/03 23:58:57;;;;;;;4.55;3.30;;;;;;;22.07;68.15;101085.66;10380932;28;96980;-78
